createdAt,value
2019-04-03T00:09:41.400Z,0.0
2019-04-03T00:19:59.000Z,0.0
2019-04-03T00:31:26.075Z,0.0
2019-04-03T00:41:42.608Z,0.0
2019-04-03T00:52:00.706Z,0.0
2019-04-03T01:02:48.265Z,0.0
2019-04-03T01:13:02.220Z,0.0
2019-04-03T01:23:25.184Z,0.0
2019-04-03T01:33:46.483Z,0.0
2019-04-03T01:43:56.741Z,0.0
2019-04-03T01:54:08.365Z,0.0
2019-04-03T02:04:23.451Z,0.0
2019-04-03T02:15:08.811Z,0.0
2019-04-03T02:26:09.935Z,0.0
2019-04-03T02:37:30.750Z,0.0
2019-04-03T02:48:37.580Z,0.0
2019-04-03T02:58:54.336Z,0.0
2019-04-03T03:09:08.599Z,0.0
2019-04-03T03:19:33.867Z,0.0
2019-04-03T03:29:45.225Z,0.0
2019-04-03T03:39:57.327Z,0.0
2019-04-03T03:50:45.133Z,0.0
2019-04-03T04:00:57.976Z,0.0
2019-04-03T04:11:08.871Z,0.0
2019-04-03T04:21:26.075Z,0.0
2019-04-03T04:31:40.130Z,0.0
2019-04-03T04:41:57.369Z,4.0
2019-04-03T04:52:11.147Z,20.0
2019-04-03T05:02:38.739Z,48.0
2019-04-03T05:12:52.257Z,96.0
2019-04-03T05:23:55.738Z,224.0
2019-04-03T05:34:05.637Z,464.0
2019-04-03T05:44:51.359Z,780.0
2019-04-03T05:55:06.135Z,852.0
2019-04-03T06:05:20.134Z,776.0
2019-04-03T06:15:38.451Z,732.0
2019-04-03T06:26:11.465Z,848.0
2019-04-03T06:36:25.532Z,1884.0
2019-04-03T06:46:40.095Z,1820.0
2019-04-03T06:56:54.207Z,1228.0
2019-04-03T07:07:09.960Z,1436.0
2019-04-03T07:17:31.427Z,2092.0
2019-04-03T07:27:42.485Z,2692.0
2019-04-03T07:37:56.111Z,2184.0
2019-04-03T07:48:10.612Z,2472.0
2019-04-03T07:58:56.266Z,4424.0
2019-04-03T08:09:43.671Z,5132.0
2019-04-03T08:20:31.525Z,5856.0
2019-04-03T08:30:45.733Z,5548.0
2019-04-03T08:40:59.396Z,5104.0
2019-04-03T08:51:10.931Z,5504.0
2019-04-03T09:02:00.391Z,6560.0
2019-04-03T09:12:14.894Z,6844.0
2019-04-03T09:23:01.102Z,9656.0
2019-04-03T09:33:14.786Z,17664.0
2019-04-03T09:43:43.205Z,12304.0
2019-04-03T09:53:59.684Z,21280.0
2019-04-03T10:04:44.727Z,8268.0
2019-04-03T10:15:31.066Z,8984.0
2019-04-03T10:25:41.075Z,9140.0
2019-04-03T10:35:55.241Z,8200.0
2019-04-03T10:46:42.820Z,9492.0
2019-04-03T10:56:57.503Z,9844.0
2019-04-03T11:07:12.309Z,10888.0
2019-04-03T11:18:57.145Z,11300.0
2019-04-03T11:29:26.140Z,3768.0
2019-04-03T11:39:47.717Z,5240.0
2019-04-03T11:50:13.361Z,5708.0
2019-04-03T12:01:22.985Z,9208.0
2019-04-03T12:11:39.509Z,10840.0
2019-04-03T12:21:53.412Z,5460.0
2019-04-03T12:32:08.408Z,3836.0
2019-04-03T12:42:19.306Z,13184.0
2019-04-03T12:54:00.007Z,7124.0
2019-04-03T13:04:48.199Z,6932.0
2019-04-03T13:15:05.856Z,4556.0
2019-04-03T13:25:56.272Z,5260.0
2019-04-03T13:36:10.627Z,6200.0
2019-04-03T13:46:34.468Z,9620.0
2019-04-03T13:57:26.259Z,11112.0
2019-04-03T14:07:40.593Z,12520.0
2019-04-03T14:18:26.680Z,6684.0
2019-04-03T14:29:12.521Z,2148.0
2019-04-03T14:39:26.585Z,4256.0
2019-04-03T14:49:41.198Z,2832.0
2019-04-03T15:00:28.323Z,3920.0
2019-04-03T15:10:52.232Z,3448.0
2019-04-03T15:21:03.391Z,2296.0
2019-04-03T15:31:17.471Z,2500.0
2019-04-03T15:41:33.104Z,1276.0
2019-04-03T15:51:44.258Z,788.0
2019-04-03T16:01:58.252Z,1704.0
2019-04-03T16:12:58.915Z,1960.0
2019-04-03T16:24:12.387Z,1216.0
2019-04-03T16:34:21.847Z,788.0
2019-04-03T16:44:35.981Z,1300.0
2019-04-03T16:54:50.139Z,656.0
2019-04-03T17:05:04.253Z,464.0
2019-04-03T17:15:52.629Z,364.0
2019-04-03T17:26:05.086Z,248.0
2019-04-03T17:36:19.811Z,172.0
2019-04-03T17:47:11.172Z,108.0
2019-04-03T17:57:24.882Z,56.0
2019-04-03T18:07:38.911Z,16.0
2019-04-03T18:17:55.878Z,4.0
2019-04-03T18:30:19.316Z,0.0
2019-04-03T18:45:24.562Z,0.0
2019-04-03T19:58:03.521Z,0.0
2019-04-03T20:09:36.421Z,0.0
2019-04-03T20:20:31.606Z,0.0
2019-04-03T20:31:26.235Z,0.0
2019-04-03T20:41:40.246Z,0.0
2019-04-03T20:51:56.372Z,0.0
2019-04-03T21:02:10.024Z,0.0
2019-04-03T21:12:21.886Z,0.0
2019-04-03T21:22:40.984Z,0.0
2019-04-03T21:33:30.608Z,0.0
2019-04-03T21:43:42.237Z,0.0
2019-04-03T21:53:55.721Z,0.0
2019-04-03T22:04:41.228Z,0.0
2019-04-03T22:15:30.046Z,0.0
2019-04-03T22:25:49.156Z,0.0
2019-04-03T22:36:34.870Z,0.0
2019-04-03T22:47:09.295Z,0.0
2019-04-03T22:57:23.259Z,0.0
2019-04-03T23:07:36.665Z,0.0
2019-04-03T23:17:50.907Z,0.0
2019-04-03T23:28:04.914Z,0.0
2019-04-03T23:38:49.719Z,0.0
2019-04-03T23:49:03.878Z,0.0
2019-04-03T23:59:15.357Z,0.0
